Liuting Airport
ZSQD : now visible

Airfield :











YOU CAN JOIN US ON...

 
LOGIN :

Register | Disclaimer

   EN    FR    IT 

 









Legend :    VFR   Marginal VFR   IFR   Intensive IFR   Very Intensive IFR
Visi :
Ceiling :
>= 8 km
>= 3000ft
5 to 8 km
1000 to 3000 ft
1500m to 5 km
500 to 1000 ft
800 to 1500m
200 to 500 ft
< 800m
< 200 ft
Symbols :   Thunderstorms  Fog  Heavy snow  Heavy precipitations  Wind > 20 kt






- Airport Elevation : 33 ft
- IATA code : TAO


ZSQD - Liuting

CURRENT METAR :
  • 311200Z 19003MPS 9999 SCT050 16/10 Q1020 NOSIG

EXPIRED METARs :
  • 311100Z 19002MPS 9999 BKN050 16/09 Q1020 NOSIG
  • 311000Z 18003MPS CAVOK 16/10 Q1020 NOSIG

TAF TAF ZSQD
Valid from the 31 at 12:00 until the 01 at 12:00 UTC


310903Z 3112/0112 20003MPS 6000 NSC TX20/0106Z TN11/3121Z
BECMG 0102/0103 33005MPS
ZSHA FIR / Asia



MET'MAP, your aeronautical weather chart ! - Copyright ORBIFLY December 2007 - Disclaimer

ORBIFLY MET'MAP TEAM :

Programming & Development : Alexandra Zaïnal
Concept & original design : Baudouin d'Aumeries
Assistance for programming : Marc-Olivier Méhu
Technical & hardware support : Manuel Goepfert

Contact : metmap@orbifly.com




SOURCES & CREDITS :

   NOAA       Earth
Advisory